Janesville, Wisconsin
Current Conditions -  °F | °C
As of 9:45 AM on Sunday 21 Dec 2014 (Local Time) from KJVL Reporting Station
Haze Haze  
Wind Chill: 28°   Ceiling: 700
Heat Index: 36°   Visibility: 4mi
Dew Point: 32°   Wind: 12mph
Humidity: 87%   Direction: 160°SSE
Pressure: 30.12"   Gusts: NA
Location:  42.69°N, 89.02°W
Report Text: KJVL 211545Z 16010KT 4SM BR OVC007 02/00 A3012
Loading
Personal Weather Stations






























Interactive Weather Map New forecast layout! Learn more

10-Day Weather Forecast

Advertisements
Track Severe Weather on mobile